createdAt,value
2022-10-30T03:59:32.901Z,7.70
2022-10-30T04:05:16.914Z,5.33
2022-10-30T04:10:23.698Z,9.60
2022-10-30T04:15:27.429Z,8.03
2022-10-30T04:20:30.291Z,7.37
2022-10-30T04:25:33.838Z,7.27
2022-10-30T04:30:37.182Z,7.67
2022-10-30T04:35:40.707Z,12.80
2022-10-30T04:40:55.316Z,10.80
2022-10-30T04:46:06.149Z,11.93
2022-10-30T04:51:09.994Z,4.60
2022-10-30T04:56:12.496Z,8.47
2022-10-30T05:01:15.516Z,7.03
2022-10-30T05:06:22.457Z,6.60
2022-10-30T05:11:25.294Z,9.03
2022-10-30T05:16:28.147Z,7.57
2022-10-30T05:21:32.259Z,12.67
2022-10-30T05:26:34.882Z,9.90
2022-10-30T05:31:37.455Z,40.50
2022-10-30T05:36:52.266Z,28.50
2022-10-30T05:41:56.359Z,16.50
2022-10-30T05:47:02.945Z,11.83
2022-10-30T05:52:08.984Z,9.07
2022-10-30T05:57:13.085Z,12.07
2022-10-30T06:02:17.104Z,9.10
2022-10-30T06:07:19.991Z,8.30
2022-10-30T06:12:23.488Z,13.77
2022-10-30T06:17:34.488Z,8.27
2022-10-30T06:22:55.482Z,13.20
2022-10-30T06:28:02.208Z,14.33
2022-10-30T06:33:07.135Z,12.60
2022-10-30T06:38:12.327Z,12.77
2022-10-30T06:43:15.699Z,9.02
2022-10-30T06:48:23.908Z,11.82
2022-10-30T06:53:30.113Z,11.55
2022-10-30T06:58:50.272Z,14.35
2022-10-30T07:04:18.216Z,12.20
2022-10-30T07:09:20.961Z,6.37
2022-10-30T07:14:25.842Z,10.60
2022-10-30T07:19:46.714Z,9.03
2022-10-30T07:24:49.484Z,7.27
2022-10-30T07:36:06.295Z,11.80
2022-10-30T07:41:29.590Z,13.70
2022-10-30T07:46:50.912Z,12.07
2022-10-30T07:52:16.357Z,7.37
2022-10-30T07:57:23.625Z,9.30
2022-10-30T08:02:58.956Z,9.20
2022-10-30T08:08:10.517Z,21.45
2022-10-30T08:13:14.430Z,12.95
2022-10-30T08:18:18.351Z,11.60
2022-10-30T08:23:23.369Z,11.73
2022-10-30T08:28:29.893Z,11.70
2022-10-30T08:33:35.883Z,7.93
2022-10-30T08:39:04.143Z,9.20
2022-10-30T08:44:30.102Z,9.03
2022-10-30T08:49:52.721Z,10.33
2022-10-30T08:54:59.980Z,8.63
2022-10-30T09:00:03.510Z,8.33
2022-10-30T09:05:38.542Z,9.43
2022-10-30T09:11:06.937Z,7.73
2022-10-30T09:16:09.851Z,5.70
2022-10-30T09:21:14.180Z,6.97
2022-10-30T09:26:22.364Z,7.70
2022-10-30T09:31:34.134Z,5.53
2022-10-30T09:36:39.242Z,8.83
2022-10-30T09:41:59.242Z,6.57
2022-10-30T09:47:06.088Z,6.17
2022-10-30T09:52:17.777Z,5.47
2022-10-30T09:57:41.052Z,8.00
2022-10-30T10:03:03.348Z,9.87
2022-10-30T10:08:17.305Z,7.17
2022-10-30T10:13:50.758Z,6.73
2022-10-30T10:19:06.034Z,4.10
2022-10-30T10:24:19.555Z,8.20
2022-10-30T10:29:41.633Z,5.13
2022-10-30T10:34:54.902Z,7.57
2022-10-30T10:40:04.694Z,5.70
2022-10-30T10:45:22.792Z,5.93
2022-10-30T10:50:27.658Z,6.93
2022-10-30T10:55:34.096Z,6.70
2022-10-30T11:00:37.250Z,6.83
2022-10-30T11:05:40.209Z,9.30
2022-10-30T11:10:43.433Z,5.90
2022-10-30T11:16:19.158Z,5.90
2022-10-30T11:21:23.206Z,10.37
2022-10-30T11:26:27.621Z,7.40
2022-10-30T11:31:40.793Z,9.27
2022-10-30T11:36:51.013Z,10.77
2022-10-30T11:42:13.822Z,11.03
2022-10-30T11:47:18.281Z,7.23
2022-10-30T11:52:23.157Z,8.80
2022-10-30T11:57:42.398Z,12.70
2022-10-30T12:02:47.040Z,10.47
2022-10-30T12:07:49.607Z,10.80
2022-10-30T12:12:52.284Z,9.90
2022-10-30T12:17:58.786Z,11.77
2022-10-30T12:23:09.853Z,10.17
2022-10-30T12:28:21.086Z,9.03
2022-10-30T12:33:23.689Z,16.33
2022-10-30T12:38:44.804Z,8.73
2022-10-30T12:43:56.666Z,40.97
2022-10-30T12:49:31.336Z,23.13
2022-10-30T12:54:39.514Z,24.27
2022-10-30T12:59:55.490Z,17.80
2022-10-30T13:05:00.652Z,10.17
2022-10-30T13:10:09.274Z,13.97
2022-10-30T13:15:15.246Z,11.63
2022-10-30T13:20:18.721Z,15.33
2022-10-30T13:25:24.145Z,9.83
2022-10-30T13:30:29.861Z,9.17
2022-10-30T13:35:51.436Z,11.23
2022-10-30T13:40:57.003Z,9.33
2022-10-30T13:46:00.114Z,11.67
2022-10-30T13:51:08.637Z,10.87
2022-10-30T13:56:13.442Z,8.43
2022-10-30T14:01:30.218Z,9.87
2022-10-30T14:06:52.951Z,11.27
2022-10-30T14:11:55.614Z,14.67
2022-10-30T14:17:15.413Z,11.33
2022-10-30T14:22:25.526Z,12.40
2022-10-30T14:27:29.376Z,12.17
2022-10-30T14:32:36.238Z,18.73
2022-10-30T14:37:39.215Z,15.47
2022-10-30T14:42:45.043Z,15.63
2022-10-30T14:48:03.270Z,19.70
2022-10-30T14:53:06.201Z,13.10
2022-10-30T14:58:16.242Z,11.90
2022-10-30T15:03:25.141Z,24.93
2022-10-30T15:08:37.212Z,17.07
2022-10-30T15:13:46.154Z,14.67
2022-10-30T15:18:55.916Z,14.07
2022-10-30T15:23:59.485Z,13.83
2022-10-30T15:29:02.306Z,13.90
2022-10-30T15:34:14.918Z,13.77
2022-10-30T15:39:19.890Z,13.63
2022-10-30T15:44:36.285Z,14.90
2022-10-30T15:49:40.498Z,17.47
2022-10-30T15:54:44.709Z,15.30
2022-10-30T15:59:56.352Z,15.87
2022-10-30T16:05:01.852Z,13.07
2022-10-30T16:10:09.809Z,16.97
2022-10-30T16:15:32.917Z,19.13
2022-10-30T16:20:36.329Z,18.97
2022-10-30T16:25:44.453Z,19.37
2022-10-30T16:30:49.888Z,23.27
2022-10-30T16:35:55.613Z,18.60
2022-10-30T16:40:59.228Z,21.63
2022-10-30T16:46:27.868Z,20.07
2022-10-30T16:51:31.030Z,22.30
2022-10-30T16:56:34.229Z,25.70
2022-10-30T17:01:37.067Z,24.40
2022-10-30T17:06:42.562Z,22.40
2022-10-30T17:11:47.334Z,32.08
2022-10-30T17:16:54.920Z,22.90
2022-10-30T17:22:02.445Z,36.50
2022-10-30T17:27:06.657Z,30.50
2022-10-30T17:32:18.278Z,29.50
2022-10-30T17:37:20.956Z,27.65
2022-10-30T17:42:24.565Z,33.47
2022-10-30T17:47:28.580Z,32.10
2022-10-30T17:52:31.779Z,31.50
2022-10-30T17:57:34.343Z,35.70
2022-10-30T18:02:37.985Z,32.15
2022-10-30T18:07:40.740Z,38.38
2022-10-30T18:12:45.180Z,43.35
2022-10-30T18:17:48.049Z,42.67
2022-10-30T18:22:51.033Z,38.95
2022-10-30T18:27:54.104Z,43.53
2022-10-30T18:32:57.471Z,41.78
2022-10-30T18:38:01.805Z,42.00
2022-10-30T18:43:04.497Z,46.28
2022-10-30T18:48:08.423Z,40.97
2022-10-30T18:53:14.245Z,41.17
2022-10-30T18:58:19.210Z,44.63
2022-10-30T19:03:22.149Z,35.38
2022-10-30T19:08:24.950Z,36.60
2022-10-30T19:13:27.548Z,34.00
2022-10-30T19:18:32.536Z,32.40
2022-10-30T19:23:35.547Z,29.30
2022-10-30T19:28:38.615Z,28.52
2022-10-30T19:33:41.338Z,31.98
2022-10-30T19:38:44.696Z,30.63
2022-10-30T19:43:47.295Z,28.52
2022-10-30T19:48:58.694Z,29.83
2022-10-30T19:54:01.886Z,29.60
2022-10-30T20:09:12.569Z,28.80
2022-10-30T20:14:15.279Z,26.63
2022-10-30T20:19:27.268Z,27.73
2022-10-30T20:24:29.924Z,29.37
